Columbia, South Carolina
Current Conditions -  °F | °C
As of 8:29 PM on Sunday 21 Dec 2014 (Local Time) from KCUB Reporting Station
Light Rain Light Rain  
Wind Chill:   Ceiling: 2500
Heat Index:   Visibility: 7mi
Dew Point:   Wind: 0mph
Humidity: 86%   Direction: NA
Pressure: 30.18"   Gusts: NA
Location:  34°N, 81.04°W
Report Text: KCUB 220129Z AUTO 00000KT 7SM -RA BKN025 OVC050 09/07 A3018 RMK AO2 RAE10B26 P0002 T00940072
Loading
Personal Weather Stations






























Interactive Weather Map New forecast layout! Learn more

10-Day Weather Forecast

Advertisements
Track Severe Weather on mobile